Reklama

Seznam meteostanic a jejich METAR

Vyhledat místa podle abecedy:
A B C D E F G H I J K L M N O P Q R S T U V W X Y Z

Filtrovat:

ID stanice:
a/nebo
Název místa (fulltext):
 
Místo (ID)Naposledy načteno 
Brno - Tuřany (Brno/Tu) 06.04.2020 14:00 UTC Zobrazit data
Místo: Brno - Tuřany
Teplota: 19 °C (pocitová: 16.7 °C)
Vítr: 9 m/s z(e) 140°
Počasí: slunečno
Dohlednost: 30 km
Zákl. oblačnosti: N/A
Vlhkost: 26%
Červená - Opava (Cervena/uL) 06.04.2020 14:00 UTC Zobrazit data
Místo: Červená - Opava
Teplota: 15 °C (pocitová: 10.9 °C)
Vítr: 9 m/s z(e) 170°
Počasí: slunečno
Dohlednost: 40 km
Zákl. oblačnosti: N/A
Vlhkost: 34%
České Budějovice (C.Budej/po) 06.04.2020 14:00 UTC Zobrazit data
Místo: České Budějovice
Teplota: 21 °C (pocitová: 20.7 °C)
Vítr: 3 m/s z(e) 170°
Počasí:
Dohlednost: 35 km
Zákl. oblačnosti: N/A
Vlhkost: 18%
Cheb (Cheb) 06.04.2020 14:00 UTC Zobrazit data
Místo: Cheb
Teplota: 20 °C (pocitová: 19.8 °C)
Vítr: 2 m/s z(e) 0°
Počasí: slunečno
Dohlednost: 45 km
Zákl. oblačnosti: N/A
Vlhkost: 26%
Chotusice - Čáslav (Caslav) 06.04.2020 14:00 UTC Zobrazit data
Místo: Chotusice - Čáslav
Teplota: 20 °C (pocitová: 18.1 °C)
Vítr: 10 m/s z(e) 130°
Počasí: slunečno
Dohlednost: 20 km
Zákl. oblačnosti: N/A
Vlhkost: 26%
Churáňov (Churanov) 06.04.2020 14:00 UTC Zobrazit data
Místo: Churáňov
Teplota: 16 °C (pocitová: 14 °C)
Vítr: 3 m/s z(e) 170°
Počasí: slunečno
Dohlednost: 50 km
Zákl. oblačnosti: N/A
Vlhkost: 25%
Doksany - Litoměřice (Doksany) 06.04.2020 14:00 UTC Zobrazit data
Místo: Doksany - Litoměřice
Teplota: 21 °C (pocitová: 20 °C)
Vítr: 6 m/s z(e) 140°
Počasí: slunečno
Dohlednost: 45 km
Zákl. oblačnosti: N/A
Vlhkost: 25%
Dukovany (Dukovany) 06.04.2020 14:00 UTC Zobrazit data
Místo: Dukovany
Teplota: 17 °C (pocitová: 13 °C)
Vítr: 14 m/s z(e) 150°
Počasí: slunečno
Dohlednost: 24 km
Zákl. oblačnosti: N/A
Vlhkost: 27%
Holešov (Holesov) 06.04.2020 14:00 UTC Zobrazit data
Místo: Holešov
Teplota: 18 °C (pocitová: 15.3 °C)
Vítr: 9 m/s z(e) 160°
Počasí: slunečno
Dohlednost: 30 km
Zákl. oblačnosti: N/A
Vlhkost: 28%
Kadaň - Tušimice (Tusimice) 06.04.2020 14:00 UTC Zobrazit data
Místo: Kadaň - Tušimice
Teplota: 19 °C (pocitová: 18.5 °C)
Vítr: 2 m/s z(e) 0°
Počasí: slunečno
Dohlednost: 18 km
Zákl. oblačnosti: N/A
Vlhkost: 30%
Karlovy Vary (K.Vary) 06.04.2020 14:00 UTC Zobrazit data
Místo: Karlovy Vary
Teplota: 18 °C (pocitová: 16.7 °C)
Vítr: 3 m/s z(e) 160°
Počasí: slunečno
Dohlednost: 50 km
Zákl. oblačnosti: N/A
Vlhkost: 28%
Kocelovice (Kocelovice) 06.04.2020 14:00 UTC Zobrazit data
Místo: Kocelovice
Teplota: 19 °C (pocitová: 17.4 °C)
Vítr: 5 m/s z(e) 130°
Počasí: slunečno
Dohlednost: 35 km
Zákl. oblačnosti: N/A
Vlhkost: 28%
Kopisty (Kopisty) 06.04.2020 12:00 UTC Zobrazit data
Místo: Kopisty
Teplota: 19 °C (pocitová: 17.6 °C)
Vítr: 4 m/s z(e) 140°
Počasí: slunečno
Dohlednost: 29 km
Zákl. oblačnosti: N/A
Vlhkost: 28%
Kostelní Myslová (K.Myslova) 06.04.2020 14:00 UTC Zobrazit data
Místo: Kostelní Myslová
Teplota: 17 °C (pocitová: 13.8 °C)
Vítr: 9 m/s z(e) 130°
Počasí: slunečno
Dohlednost: 40 km
Zákl. oblačnosti: N/A
Vlhkost: 32%
Křešín - Kramolín (Kramolin) 06.04.2020 14:00 UTC Zobrazit data
Místo: Křešín - Kramolín
Teplota: 17 °C (pocitová: 14.1 °C)
Vítr: 7 m/s z(e) 150°
Počasí: slunečno
Dohlednost: 25 km
Zákl. oblačnosti: N/A
Vlhkost: 32%
Kuchařovice - Znojmo (Kucharovic) 06.04.2020 14:00 UTC Zobrazit data
Místo: Kuchařovice - Znojmo
Teplota: 18 °C (pocitová: 14.7 °C)
Vítr: 13 m/s z(e) 140°
Počasí: slunečno
Dohlednost: 28 km
Zákl. oblačnosti: N/A
Vlhkost: 28%
Liberec (Liberec) 06.04.2020 14:00 UTC Zobrazit data
Místo: Liberec
Teplota: 18 °C (pocitová: 15.8 °C)
Vítr: 6 m/s z(e) 140°
Počasí: slunečno
Dohlednost: 35 km
Zákl. oblačnosti: N/A
Vlhkost: 22%
Luká (Luka) 06.04.2020 14:00 UTC Zobrazit data
Místo: Luká
Teplota: 16 °C (pocitová: 12.1 °C)
Vítr: 10 m/s z(e) 170°
Počasí: slunečno
Dohlednost: 13 km
Zákl. oblačnosti: N/A
Vlhkost: 29%
Lysá Hora (Lysa Hora) 06.04.2020 14:00 UTC Zobrazit data
Místo: Lysá Hora
Teplota: 10 °C (pocitová: 5.3 °C)
Vítr: 4 m/s z(e) 200°
Počasí: slunečno
Dohlednost: 35 km
Zákl. oblačnosti: N/A
Vlhkost: 40%
Milešovka (Milesovka) 06.04.2020 14:00 UTC Zobrazit data
Místo: Milešovka
Teplota: 20 °C (pocitová: 18.2 °C)
Vítr: 9 m/s z(e) 150°
Počasí: slunečno
Dohlednost: 40 km
Zákl. oblačnosti: N/A
Vlhkost: 26%
Mošnov (Ostrava/Mo) 06.04.2020 14:00 UTC Zobrazit data
Místo: Mošnov
Teplota: 19 °C (pocitová: 17.4 °C)
Vítr: 5 m/s z(e) 180°
Počasí: slunečno
Dohlednost: 30 km
Zákl. oblačnosti: N/A
Vlhkost: 26%
Náměšť nad Oslavou (Namest n/O) 06.04.2020 14:00 UTC Zobrazit data
Místo: Náměšť nad Oslavou
Teplota: 17 °C (pocitová: 13.6 °C)
Vítr: 10 m/s z(e) 140°
Počasí: slunečno
Dohlednost: 30 km
Zákl. oblačnosti: N/A
Vlhkost: 27%
Pardubice (Pardubice) 06.04.2020 14:00 UTC Zobrazit data
Místo: Pardubice
Teplota: 19 °C (pocitová: 16.8 °C)
Vítr: 8 m/s z(e) 160°
Počasí: slunečno
Dohlednost: 20 km
Zákl. oblačnosti: N/A
Vlhkost: 28%
Pec pod Sněžkou (Pec p.Snez) 06.04.2020 14:00 UTC Zobrazit data
Místo: Pec pod Sněžkou
Teplota: 13 °C (pocitová: 9.4 °C)
Vítr: 4 m/s z(e) 200°
Počasí: slunečno
Dohlednost: 50 km
Zákl. oblačnosti: N/A
Vlhkost: 33%
Plzeň město - Mikulka (Plzen/Miku) 06.04.2020 14:00 UTC Zobrazit data
Místo: Plzeň město - Mikulka
Teplota: 22 °C (pocitová: 22 °C)
Vítr: 3 m/s z(e) 190°
Počasí: slunečno
Dohlednost: 50 km
Zákl. oblačnosti: N/A
Vlhkost: 27%
Polom (Polom) 06.04.2020 14:00 UTC Zobrazit data
Místo: Polom
Teplota: 15 °C (pocitová: 11 °C)
Vítr: 8 m/s z(e) 190°
Počasí: slunečno
Dohlednost: 30 km
Zákl. oblačnosti: N/A
Vlhkost: 29%
Praha - Karlov (Praha/Kar) 06.04.2020 14:00 UTC Zobrazit data
Místo: Praha - Karlov
Teplota: 21 °C (pocitová: 20.4 °C)
Vítr: 4 m/s z(e) 160°
Počasí: slunečno
Dohlednost: 30 km
Zákl. oblačnosti: N/A
Vlhkost: 21%
Praha - Kbely (Praha/Kbe) 06.04.2020 14:00 UTC Zobrazit data
Místo: Praha - Kbely
Teplota: 20 °C (pocitová: 18.8 °C)
Vítr: 5 m/s z(e) 140°
Počasí: slunečno
Dohlednost: 25 km
Zákl. oblačnosti: N/A
Vlhkost: 26%
Praha - Libuš (Praha/Lib) 06.04.2020 14:00 UTC Zobrazit data
Místo: Praha - Libuš
Teplota: 20 °C (pocitová: 19 °C)
Vítr: 4 m/s z(e) 160°
Počasí: slunečno
Dohlednost: 35 km
Zákl. oblačnosti: N/A
Vlhkost: 26%
Praha - Ruzyně (Praha/Ru) 06.04.2020 14:00 UTC Zobrazit data
Místo: Praha - Ruzyně
Teplota: 20 °C (pocitová: 19 °C)
Vítr: 4 m/s z(e) 160°
Počasí: slunečno
Dohlednost: 30 km
Zákl. oblačnosti: N/A
Vlhkost: 23%
Přibyslav (Pribyslav) 06.04.2020 14:00 UTC Zobrazit data
Místo: Přibyslav
Teplota: 17 °C (pocitová: 13.4 °C)
Vítr: 11 m/s z(e) 160°
Počasí: slunečno
Dohlednost: 25 km
Zákl. oblačnosti: N/A
Vlhkost: 32%
Přimda (Primda) 06.04.2020 14:00 UTC Zobrazit data
Místo: Přimda
Teplota: 17 °C (pocitová: 15.9 °C)
Vítr: 2 m/s z(e) 150°
Počasí: slunečno
Dohlednost: 50 km
Zákl. oblačnosti: N/A
Vlhkost: 32%
Šerák (Serak) 06.04.2020 14:00 UTC Zobrazit data
Místo: Šerák
Teplota: 8 °C (pocitová: 1.6 °C)
Vítr: 6 m/s z(e) 190°
Počasí: slunečno
Dohlednost: 27 km
Zákl. oblačnosti: N/A
Vlhkost: 46%
Svratouch (Svratouch) 06.04.2020 14:00 UTC Zobrazit data
Místo: Svratouch
Teplota: 14 °C (pocitová: 8.6 °C)
Vítr: 13 m/s z(e) 170°
Počasí: slunečno
Dohlednost: 25 km
Zákl. oblačnosti: N/A
Vlhkost: 36%
Temelín (Temelin) 06.04.2020 14:00 UTC Zobrazit data
Místo: Temelín
Teplota: 19 °C (pocitová: 18 °C)
Vítr: 3 m/s z(e) 140°
Počasí: slunečno
Dohlednost: 30 km
Zákl. oblačnosti: N/A
Vlhkost: 28%
Ústí nad Labem - Kočkov (Usti n/L) 06.04.2020 14:00 UTC Zobrazit data
Místo: Ústí nad Labem - Kočkov
Teplota: 19 °C (pocitová: 17.2 °C)
Vítr: 6 m/s z(e) 180°
Počasí: slunečno
Dohlednost: 45 km
Zákl. oblačnosti: N/A
Vlhkost: 28%
Ústí nad Orlicí (Usti n/O) 06.04.2020 14:00 UTC Zobrazit data
Místo: Ústí nad Orlicí
Teplota: 17 °C (pocitová: 14.1 °C)
Vítr: 7 m/s z(e) 160°
Počasí: slunečno
Dohlednost: 30 km
Zákl. oblačnosti: N/A
Vlhkost: 30%
Aalborg (EKYT) 06.04.2020 13:50 UTC Zobrazit METAR
EKYT 061350Z 13012KT CAVOK 16/04 Q1018
Aarhus (EKAH) 26.03.2020 11:50 UTC Zobrazit METAR
EKAH 261150Z 14009KT 100V190 CAVOK 10/M06 Q1031
Abu Dhabi (OMAA) 06.04.2020 14:00 UTC Zobrazit METAR
OMAA 061400Z 29011KT CAVOK 28/08 Q1012 NOSIG
Abuja (DNAA) 06.04.2020 14:00 UTC Zobrazit METAR
DNAA 061400Z 29011KT 9999 FEW014 35/20 Q1010 NOSIG
Accra (DGAA) 06.04.2020 14:00 UTC Zobrazit METAR
DGAA 061400Z 20017KT 9999 FEW032 32/24 Q1010 NOSIG
Addis Abeba (HAAB) 06.04.2020 14:00 UTC Zobrazit METAR
HAAB 061400Z 10016KT 9999 FEW026 24/04 Q1026
Agana (PGUM) 06.04.2020 13:54 UTC Zobrazit METAR
PGUM 061354Z 07006KT 10SM CLR 26/23 A2992 RMK AO2 SLP123 T02610228 403110250
Ahe Island (NTHE) Zatím nenačteno  
Akureyri (BIAR) 06.04.2020 14:00 UTC Zobrazit METAR
BIAR 061400Z 17013G25KT 9999 -DZ BKN042 04/M00 Q0968 RMK WIND VADLAHEIDI 11520KT
Almaty (UAAA) Zatím nenačteno  
Amman (OJAM) 06.04.2020 14:00 UTC Zobrazit METAR
OJAM 061400Z 28008KT 6000 NSC 19/06 Q1017 NOSIG
Amsterdam (EHAM) 06.04.2020 13:55 UTC Zobrazit METAR
EHAM 061355Z 26020KT CAVOK 17/06 Q1019 NOSIG
Antananarivo (FMMI) 06.04.2020 09:00 UTC Zobrazit METAR
FMMI 060900Z 24004KT 190V310 9999 SCT023 25/16 Q1020 NOSIG
1 2 3 ... 9 Další
Reklama

Počasí na Váš email

Emaily jsou bez reklamy a bez spamu



Odhlásit newsletter

Reklama


Lunární kalendář

  • 08.04.
  • 15.04.
  • 23.04.
  • 30.04.





Vyhledat na internetu:
Reklama